Terminal Aerodrome Forecast
Issued by NWS

Home | Current Version | Previous Version | Text Only | Print | Product List | Glossary Off
Versions: 1 2 3 4 5 6 7 8 9 10 11 12 13 14 15 16 17 18 19 20 21

000
FTUS43 KUNR 171815 AAA
TAFGCC
TAF AMD
KGCC 171815Z 1718/1818 22016G26KT P6SM BKN080
     FM180700 22025G36KT P6SM OVC100 WS020/25050KT
     FM181100 28018G28KT P6SM OVC070
     FM181600 33010KT 5SM -SN OVC015=

USA.gov is the U.S. government's official web portal to all federal, state and local government web resources and services.